sensor_id;sensor_type;location;lat;lon;timestamp;P1;durP1;ratioP1;P2;durP2;ratioP2
66298;SDS011;53098;47.658;8.578;2022-08-18T00:00:34;7.73;;;3.10;;
66298;SDS011;53098;47.658;8.578;2022-08-18T00:03:03;6.23;;;3.33;;
66298;SDS011;53098;47.658;8.578;2022-08-18T00:05:29;7.15;;;3.10;;
66298;SDS011;53098;47.658;8.578;2022-08-18T00:07:54;6.95;;;3.75;;
66298;SDS011;53098;47.658;8.578;2022-08-18T00:10:20;6.32;;;3.03;;
66298;SDS011;53098;47.658;8.578;2022-08-18T00:12:45;6.73;;;3.10;;
66298;SDS011;53098;47.658;8.578;2022-08-18T00:15:12;6.45;;;3.25;;
66298;SDS011;53098;47.658;8.578;2022-08-18T00:17:38;7.15;;;3.35;;
66298;SDS011;53098;47.658;8.578;2022-08-18T00:20:04;6.72;;;3.20;;
66298;SDS011;53098;47.658;8.578;2022-08-18T00:22:30;6.68;;;3.10;;
66298;SDS011;53098;47.658;8.578;2022-08-18T00:24:55;6.00;;;3.20;;
66298;SDS011;53098;47.658;8.578;2022-08-18T00:27:22;6.38;;;3.05;;
66298;SDS011;53098;47.658;8.578;2022-08-18T00:29:48;6.70;;;3.20;;
66298;SDS011;53098;47.658;8.578;2022-08-18T00:32:17;7.20;;;3.22;;
66298;SDS011;53098;47.658;8.578;2022-08-18T00:34:43;6.18;;;2.92;;
66298;SDS011;53098;47.658;8.578;2022-08-18T00:37:09;7.53;;;3.42;;
66298;SDS011;53098;47.658;8.578;2022-08-18T00:39:34;6.97;;;3.40;;
66298;SDS011;53098;47.658;8.578;2022-08-18T00:42:10;7.32;;;3.65;;
66298;SDS011;53098;47.658;8.578;2022-08-18T00:44:36;7.28;;;3.70;;
66298;SDS011;53098;47.658;8.578;2022-08-18T00:47:01;8.40;;;4.17;;
66298;SDS011;53098;47.658;8.578;2022-08-18T00:49:26;7.90;;;3.67;;
66298;SDS011;53098;47.658;8.578;2022-08-18T00:51:51;7.43;;;4.07;;
66298;SDS011;53098;47.658;8.578;2022-08-18T00:54:22;7.00;;;3.50;;
66298;SDS011;53098;47.658;8.578;2022-08-18T00:59:15;7.22;;;3.78;;
66298;SDS011;53098;47.658;8.578;2022-08-18T01:01:41;10.73;;;4.28;;
66298;SDS011;53098;47.658;8.578;2022-08-18T01:04:10;6.93;;;3.60;;
66298;SDS011;53098;47.658;8.578;2022-08-18T01:06:38;9.07;;;4.05;;
66298;SDS011;53098;47.658;8.578;2022-08-18T01:09:05;7.53;;;3.92;;
66298;SDS011;53098;47.658;8.578;2022-08-18T01:11:31;7.18;;;3.55;;
66298;SDS011;53098;47.658;8.578;2022-08-18T01:13:56;7.95;;;4.10;;
66298;SDS011;53098;47.658;8.578;2022-08-18T01:16:22;11.60;;;4.97;;
66298;SDS011;53098;47.658;8.578;2022-08-18T01:18:47;8.90;;;4.37;;
66298;SDS011;53098;47.658;8.578;2022-08-18T01:21:15;9.90;;;4.50;;
66298;SDS011;53098;47.658;8.578;2022-08-18T01:23:42;8.45;;;4.15;;
66298;SDS011;53098;47.658;8.578;2022-08-18T01:26:08;10.10;;;4.30;;
66298;SDS011;53098;47.658;8.578;2022-08-18T01:28:38;7.75;;;4.22;;
66298;SDS011;53098;47.658;8.578;2022-08-18T01:31:04;8.48;;;4.50;;
66298;SDS011;53098;47.658;8.578;2022-08-18T01:33:33;7.90;;;4.57;;
66298;SDS011;53098;47.658;8.578;2022-08-18T01:36:08;9.13;;;4.95;;
66298;SDS011;53098;47.658;8.578;2022-08-18T01:38:33;9.55;;;5.18;;
66298;SDS011;53098;47.658;8.578;2022-08-18T01:40:59;12.43;;;6.20;;
66298;SDS011;53098;47.658;8.578;2022-08-18T01:43:24;10.10;;;5.60;;
66298;SDS011;53098;47.658;8.578;2022-08-18T01:45:49;10.30;;;5.85;;
66298;SDS011;53098;47.658;8.578;2022-08-18T01:48:15;9.53;;;5.43;;
66298;SDS011;53098;47.658;8.578;2022-08-18T01:50:40;9.55;;;4.95;;
66298;SDS011;53098;47.658;8.578;2022-08-18T01:53:06;11.30;;;5.90;;
66298;SDS011;53098;47.658;8.578;2022-08-18T01:55:34;9.50;;;5.63;;
66298;SDS011;53098;47.658;8.578;2022-08-18T01:58:00;8.75;;;5.60;;
66298;SDS011;53098;47.658;8.578;2022-08-18T02:00:25;10.20;;;5.40;;
66298;SDS011;53098;47.658;8.578;2022-08-18T02:02:51;8.80;;;5.50;;
66298;SDS011;53098;47.658;8.578;2022-08-18T02:05:18;8.32;;;4.45;;
66298;SDS011;53098;47.658;8.578;2022-08-18T02:07:46;9.43;;;5.22;;
66298;SDS011;53098;47.658;8.578;2022-08-18T02:10:11;8.37;;;4.57;;
66298;SDS011;53098;47.658;8.578;2022-08-18T02:12:38;10.45;;;5.00;;
66298;SDS011;53098;47.658;8.578;2022-08-18T02:15:04;8.40;;;4.38;;
66298;SDS011;53098;47.658;8.578;2022-08-18T02:17:35;7.70;;;4.50;;
66298;SDS011;53098;47.658;8.578;2022-08-18T02:20:01;8.15;;;4.05;;
66298;SDS011;53098;47.658;8.578;2022-08-18T02:22:26;8.10;;;4.60;;
66298;SDS011;53098;47.658;8.578;2022-08-18T02:24:51;11.03;;;5.03;;
66298;SDS011;53098;47.658;8.578;2022-08-18T02:27:16;9.50;;;5.30;;
66298;SDS011;53098;47.658;8.578;2022-08-18T02:29:42;9.93;;;5.73;;
66298;SDS011;53098;47.658;8.578;2022-08-18T02:32:07;9.75;;;5.93;;
66298;SDS011;53098;47.658;8.578;2022-08-18T02:34:33;11.20;;;6.27;;
66298;SDS011;53098;47.658;8.578;2022-08-18T02:36:58;11.65;;;6.90;;
66298;SDS011;53098;47.658;8.578;2022-08-18T02:39:24;12.43;;;6.93;;
66298;SDS011;53098;47.658;8.578;2022-08-18T02:41:49;11.20;;;6.87;;
66298;SDS011;53098;47.658;8.578;2022-08-18T02:44:14;12.50;;;7.87;;
66298;SDS011;53098;47.658;8.578;2022-08-18T02:46:40;13.70;;;7.43;;
66298;SDS011;53098;47.658;8.578;2022-08-18T02:49:05;12.33;;;7.50;;
66298;SDS011;53098;47.658;8.578;2022-08-18T02:51:31;14.88;;;8.48;;
66298;SDS011;53098;47.658;8.578;2022-08-18T02:53:57;12.05;;;7.50;;
66298;SDS011;53098;47.658;8.578;2022-08-18T02:56:22;12.73;;;6.87;;
66298;SDS011;53098;47.658;8.578;2022-08-18T02:58:49;11.45;;;5.80;;
66298;SDS011;53098;47.658;8.578;2022-08-18T03:01:14;9.73;;;5.38;;
66298;SDS011;53098;47.658;8.578;2022-08-18T03:03:39;8.30;;;4.70;;
66298;SDS011;53098;47.658;8.578;2022-08-18T03:06:05;10.33;;;5.00;;
66298;SDS011;53098;47.658;8.578;2022-08-18T03:08:30;10.25;;;5.38;;
66298;SDS011;53098;47.658;8.578;2022-08-18T03:10:56;7.63;;;4.53;;
66298;SDS011;53098;47.658;8.578;2022-08-18T03:13:21;12.77;;;5.70;;
66298;SDS011;53098;47.658;8.578;2022-08-18T03:15:46;11.52;;;5.78;;
66298;SDS011;53098;47.658;8.578;2022-08-18T03:18:12;12.23;;;6.30;;
66298;SDS011;53098;47.658;8.578;2022-08-18T03:20:37;8.90;;;5.47;;
66298;SDS011;53098;47.658;8.578;2022-08-18T03:23:03;9.33;;;5.93;;
66298;SDS011;53098;47.658;8.578;2022-08-18T03:25:28;9.25;;;5.35;;
66298;SDS011;53098;47.658;8.578;2022-08-18T03:27:53;12.73;;;5.80;;
66298;SDS011;53098;47.658;8.578;2022-08-18T03:30:19;9.87;;;5.87;;
66298;SDS011;53098;47.658;8.578;2022-08-18T03:32:44;10.53;;;6.00;;
66298;SDS011;53098;47.658;8.578;2022-08-18T03:35:09;9.27;;;5.40;;
66298;SDS011;53098;47.658;8.578;2022-08-18T03:37:35;10.27;;;5.60;;
66298;SDS011;53098;47.658;8.578;2022-08-18T03:40:00;12.27;;;6.13;;
66298;SDS011;53098;47.658;8.578;2022-08-18T03:42:25;10.83;;;5.80;;
66298;SDS011;53098;47.658;8.578;2022-08-18T03:44:50;10.20;;;5.67;;
66298;SDS011;53098;47.658;8.578;2022-08-18T03:47:16;12.23;;;6.10;;
66298;SDS011;53098;47.658;8.578;2022-08-18T03:49:41;10.80;;;6.33;;
66298;SDS011;53098;47.658;8.578;2022-08-18T03:52:07;9.83;;;6.10;;
66298;SDS011;53098;47.658;8.578;2022-08-18T03:54:33;13.30;;;6.93;;
66298;SDS011;53098;47.658;8.578;2022-08-18T03:56:58;12.50;;;7.20;;
66298;SDS011;53098;47.658;8.578;2022-08-18T03:59:24;10.75;;;7.28;;
66298;SDS011;53098;47.658;8.578;2022-08-18T04:01:50;11.95;;;6.30;;
66298;SDS011;53098;47.658;8.578;2022-08-18T04:04:16;12.27;;;7.15;;
66298;SDS011;53098;47.658;8.578;2022-08-18T04:06:44;12.57;;;7.70;;
66298;SDS011;53098;47.658;8.578;2022-08-18T04:09:12;12.00;;;7.80;;
66298;SDS011;53098;47.658;8.578;2022-08-18T04:11:38;11.02;;;7.03;;
66298;SDS011;53098;47.658;8.578;2022-08-18T04:14:04;12.70;;;7.43;;
66298;SDS011;53098;47.658;8.578;2022-08-18T04:16:30;12.77;;;7.70;;
66298;SDS011;53098;47.658;8.578;2022-08-18T04:18:55;12.50;;;7.97;;
66298;SDS011;53098;47.658;8.578;2022-08-18T04:21:21;11.40;;;7.20;;
66298;SDS011;53098;47.658;8.578;2022-08-18T04:23:46;12.53;;;6.93;;
66298;SDS011;53098;47.658;8.578;2022-08-18T04:26:11;11.77;;;7.80;;
66298;SDS011;53098;47.658;8.578;2022-08-18T04:28:37;23.73;;;7.50;;
66298;SDS011;53098;47.658;8.578;2022-08-18T04:31:07;16.08;;;8.45;;
66298;SDS011;53098;47.658;8.578;2022-08-18T04:33:33;13.45;;;8.63;;
66298;SDS011;53098;47.658;8.578;2022-08-18T04:35:58;12.73;;;8.57;;
66298;SDS011;53098;47.658;8.578;2022-08-18T04:38:23;15.47;;;8.77;;
66298;SDS011;53098;47.658;8.578;2022-08-18T04:40:49;12.93;;;8.63;;
66298;SDS011;53098;47.658;8.578;2022-08-18T04:43:14;14.25;;;8.43;;
66298;SDS011;53098;47.658;8.578;2022-08-18T04:45:46;12.47;;;8.57;;
66298;SDS011;53098;47.658;8.578;2022-08-18T04:48:12;16.63;;;8.13;;
66298;SDS011;53098;47.658;8.578;2022-08-18T04:50:37;14.45;;;8.15;;
66298;SDS011;53098;47.658;8.578;2022-08-18T04:53:03;15.32;;;8.63;;
66298;SDS011;53098;47.658;8.578;2022-08-18T04:55:28;13.45;;;8.00;;
66298;SDS011;53098;47.658;8.578;2022-08-18T04:57:54;13.37;;;7.83;;
66298;SDS011;53098;47.658;8.578;2022-08-18T05:00:20;13.35;;;8.07;;
66298;SDS011;53098;47.658;8.578;2022-08-18T05:02:45;13.53;;;8.77;;
66298;SDS011;53098;47.658;8.578;2022-08-18T05:05:10;12.77;;;8.48;;
66298;SDS011;53098;47.658;8.578;2022-08-18T05:07:35;12.40;;;7.33;;
66298;SDS011;53098;47.658;8.578;2022-08-18T05:10:01;11.50;;;7.90;;
66298;SDS011;53098;47.658;8.578;2022-08-18T05:12:26;12.83;;;8.90;;
66298;SDS011;53098;47.658;8.578;2022-08-18T05:14:52;12.85;;;8.20;;
66298;SDS011;53098;47.658;8.578;2022-08-18T05:17:17;12.88;;;8.10;;
66298;SDS011;53098;47.658;8.578;2022-08-18T05:19:42;12.50;;;8.30;;
66298;SDS011;53098;47.658;8.578;2022-08-18T05:22:08;13.43;;;8.43;;
66298;SDS011;53098;47.658;8.578;2022-08-18T05:24:33;13.48;;;8.55;;
66298;SDS011;53098;47.658;8.578;2022-08-18T05:26:58;13.67;;;8.63;;
66298;SDS011;53098;47.658;8.578;2022-08-18T05:29:24;13.77;;;8.10;;
66298;SDS011;53098;47.658;8.578;2022-08-18T05:31:49;18.40;;;10.17;;
66298;SDS011;53098;47.658;8.578;2022-08-18T05:34:15;14.52;;;9.23;;
66298;SDS011;53098;47.658;8.578;2022-08-18T05:39:34;16.17;;;9.13;;
66298;SDS011;53098;47.658;8.578;2022-08-18T05:42:05;14.90;;;10.20;;
66298;SDS011;53098;47.658;8.578;2022-08-18T05:44:33;12.70;;;8.73;;
66298;SDS011;53098;47.658;8.578;2022-08-18T05:47:03;16.50;;;8.50;;
66298;SDS011;53098;47.658;8.578;2022-08-18T05:49:29;12.93;;;8.20;;
66298;SDS011;53098;47.658;8.578;2022-08-18T05:54:42;13.25;;;7.68;;
66298;SDS011;53098;47.658;8.578;2022-08-18T05:57:14;11.90;;;6.97;;
66298;SDS011;53098;47.658;8.578;2022-08-18T05:59:40;11.98;;;7.65;;
66298;SDS011;53098;47.658;8.578;2022-08-18T06:04:46;10.30;;;6.30;;
66298;SDS011;53098;47.658;8.578;2022-08-18T06:07:15;9.63;;;5.68;;
66298;SDS011;53098;47.658;8.578;2022-08-18T06:09:46;9.98;;;5.78;;
66298;SDS011;53098;47.658;8.578;2022-08-18T06:14:50;13.68;;;6.80;;
66298;SDS011;53098;47.658;8.578;2022-08-18T06:27:21;11.60;;;5.90;;
66298;SDS011;53098;47.658;8.578;2022-08-18T06:32:21;11.40;;;6.07;;
66298;SDS011;53098;47.658;8.578;2022-08-18T06:40:04;9.50;;;5.75;;
66298;SDS011;53098;47.658;8.578;2022-08-18T06:42:29;11.30;;;5.85;;
66298;SDS011;53098;47.658;8.578;2022-08-18T06:44:57;11.50;;;5.67;;
66298;SDS011;53098;47.658;8.578;2022-08-18T06:49:58;10.13;;;5.57;;
66298;SDS011;53098;47.658;8.578;2022-08-18T06:52:28;12.32;;;5.88;;
66298;SDS011;53098;47.658;8.578;2022-08-18T06:54:55;11.82;;;6.22;;
66298;SDS011;53098;47.658;8.578;2022-08-18T06:57:28;11.30;;;6.63;;
66298;SDS011;53098;47.658;8.578;2022-08-18T06:59:58;11.73;;;6.97;;
66298;SDS011;53098;47.658;8.578;2022-08-18T07:02:25;16.90;;;9.32;;
66298;SDS011;53098;47.658;8.578;2022-08-18T07:05:27;13.40;;;8.90;;
66298;SDS011;53098;47.658;8.578;2022-08-18T07:07:46;13.57;;;8.32;;
66298;SDS011;53098;47.658;8.578;2022-08-18T07:12:50;12.13;;;8.30;;
66298;SDS011;53098;47.658;8.578;2022-08-18T07:15:16;12.30;;;7.93;;
66298;SDS011;53098;47.658;8.578;2022-08-18T07:17:47;13.70;;;9.80;;
66298;SDS011;53098;47.658;8.578;2022-08-18T07:22:51;14.90;;;10.50;;
66298;SDS011;53098;47.658;8.578;2022-08-18T07:25:29;13.90;;;9.13;;
66298;SDS011;53098;47.658;8.578;2022-08-18T07:27:55;13.50;;;8.98;;
66298;SDS011;53098;47.658;8.578;2022-08-18T07:32:47;15.03;;;9.73;;
66298;SDS011;53098;47.658;8.578;2022-08-18T07:35:18;12.65;;;8.98;;
66298;SDS011;53098;47.658;8.578;2022-08-18T07:43:02;13.07;;;8.65;;
66298;SDS011;53098;47.658;8.578;2022-08-18T07:45:37;15.70;;;8.90;;
66298;SDS011;53098;47.658;8.578;2022-08-18T07:48:17;14.70;;;9.18;;
66298;SDS011;53098;47.658;8.578;2022-08-18T07:55:40;14.30;;;8.45;;
66298;SDS011;53098;47.658;8.578;2022-08-18T07:58:28;13.25;;;8.55;;
66298;SDS011;53098;47.658;8.578;2022-08-18T08:01:00;15.32;;;9.52;;
66298;SDS011;53098;47.658;8.578;2022-08-18T08:19:01;10.65;;;6.15;;
66298;SDS011;53098;47.658;8.578;2022-08-18T08:21:27;12.35;;;7.15;;
66298;SDS011;53098;47.658;8.578;2022-08-18T08:31:47;10.60;;;6.10;;
66298;SDS011;53098;47.658;8.578;2022-08-18T08:36:45;9.93;;;6.10;;
66298;SDS011;53098;47.658;8.578;2022-08-18T08:39:22;10.60;;;6.28;;
66298;SDS011;53098;47.658;8.578;2022-08-18T08:41:51;11.93;;;7.10;;
66298;SDS011;53098;47.658;8.578;2022-08-18T08:51:43;9.70;;;6.27;;
66298;SDS011;53098;47.658;8.578;2022-08-18T08:54:10;14.52;;;6.57;;
66298;SDS011;53098;47.658;8.578;2022-08-18T08:56:39;12.82;;;6.30;;
66298;SDS011;53098;47.658;8.578;2022-08-18T08:59:09;10.57;;;5.78;;
66298;SDS011;53098;47.658;8.578;2022-08-18T09:04:25;9.10;;;5.40;;
66298;SDS011;53098;47.658;8.578;2022-08-18T09:17:26;9.93;;;5.22;;
66298;SDS011;53098;47.658;8.578;2022-08-18T09:20:05;10.05;;;5.63;;
66298;SDS011;53098;47.658;8.578;2022-08-18T09:24:58;9.83;;;6.00;;
66298;SDS011;53098;47.658;8.578;2022-08-18T09:27:38;11.93;;;6.32;;
66298;SDS011;53098;47.658;8.578;2022-08-18T09:30:05;9.57;;;5.82;;
66298;SDS011;53098;47.658;8.578;2022-08-18T09:32:33;8.32;;;4.85;;
66298;SDS011;53098;47.658;8.578;2022-08-18T09:37:29;13.93;;;6.97;;
66298;SDS011;53098;47.658;8.578;2022-08-18T09:40:08;11.55;;;6.97;;
66298;SDS011;53098;47.658;8.578;2022-08-18T09:42:39;10.18;;;6.45;;
66298;SDS011;53098;47.658;8.578;2022-08-18T09:45:35;9.40;;;5.63;;
66298;SDS011;53098;47.658;8.578;2022-08-18T09:52:50;10.93;;;5.93;;
66298;SDS011;53098;47.658;8.578;2022-08-18T09:55:35;10.60;;;6.07;;
66298;SDS011;53098;47.658;8.578;2022-08-18T09:58:47;10.38;;;5.85;;
66298;SDS011;53098;47.658;8.578;2022-08-18T10:00:57;11.23;;;5.53;;
66298;SDS011;53098;47.658;8.578;2022-08-18T10:03:31;12.32;;;6.43;;
66298;SDS011;53098;47.658;8.578;2022-08-18T10:06:02;11.60;;;5.63;;
66298;SDS011;53098;47.658;8.578;2022-08-18T10:08:34;11.73;;;6.30;;
66298;SDS011;53098;47.658;8.578;2022-08-18T10:11:12;11.88;;;6.30;;
66298;SDS011;53098;47.658;8.578;2022-08-18T10:18:38;11.00;;;6.03;;
66298;SDS011;53098;47.658;8.578;2022-08-18T10:21:11;10.63;;;6.57;;
66298;SDS011;53098;47.658;8.578;2022-08-18T10:31:30;14.32;;;6.40;;
66298;SDS011;53098;47.658;8.578;2022-08-18T10:33:59;12.10;;;5.72;;
66298;SDS011;53098;47.658;8.578;2022-08-18T10:36:43;11.98;;;6.05;;
66298;SDS011;53098;47.658;8.578;2022-08-18T10:39:10;11.73;;;6.28;;
66298;SDS011;53098;47.658;8.578;2022-08-18T10:41:36;10.60;;;5.45;;
66298;SDS011;53098;47.658;8.578;2022-08-18T10:44:07;15.15;;;6.07;;
66298;SDS011;53098;47.658;8.578;2022-08-18T10:46:39;10.18;;;6.18;;
66298;SDS011;53098;47.658;8.578;2022-08-18T10:51:40;9.88;;;6.03;;
66298;SDS011;53098;47.658;8.578;2022-08-18T10:56:42;9.37;;;5.40;;
66298;SDS011;53098;47.658;8.578;2022-08-18T10:59:14;10.80;;;5.38;;
66298;SDS011;53098;47.658;8.578;2022-08-18T11:04:52;10.93;;;5.87;;
66298;SDS011;53098;47.658;8.578;2022-08-18T11:06:57;11.02;;;5.75;;
66298;SDS011;53098;47.658;8.578;2022-08-18T11:11:50;9.40;;;5.30;;
66298;SDS011;53098;47.658;8.578;2022-08-18T11:19:15;10.07;;;5.70;;
66298;SDS011;53098;47.658;8.578;2022-08-18T11:26:36;9.43;;;5.18;;
66298;SDS011;53098;47.658;8.578;2022-08-18T11:31:46;9.32;;;5.35;;
66298;SDS011;53098;47.658;8.578;2022-08-18T11:34:16;12.93;;;5.68;;
66298;SDS011;53098;47.658;8.578;2022-08-18T11:36:42;8.63;;;4.90;;
66298;SDS011;53098;47.658;8.578;2022-08-18T11:39:08;8.80;;;5.10;;
66298;SDS011;53098;47.658;8.578;2022-08-18T11:41:34;8.13;;;5.15;;
66298;SDS011;53098;47.658;8.578;2022-08-18T11:43:59;10.43;;;5.43;;
66298;SDS011;53098;47.658;8.578;2022-08-18T11:46:35;13.57;;;6.27;;
66298;SDS011;53098;47.658;8.578;2022-08-18T11:49:11;10.30;;;5.32;;
66298;SDS011;53098;47.658;8.578;2022-08-18T11:51:51;8.73;;;4.38;;
66298;SDS011;53098;47.658;8.578;2022-08-18T11:54:21;9.90;;;5.05;;
66298;SDS011;53098;47.658;8.578;2022-08-18T11:56:47;9.30;;;5.38;;
66298;SDS011;53098;47.658;8.578;2022-08-18T12:01:52;12.15;;;5.15;;
66298;SDS011;53098;47.658;8.578;2022-08-18T12:14:18;12.25;;;5.35;;
66298;SDS011;53098;47.658;8.578;2022-08-18T12:16:44;10.07;;;5.55;;
66298;SDS011;53098;47.658;8.578;2022-08-18T12:19:10;9.00;;;5.40;;
66298;SDS011;53098;47.658;8.578;2022-08-18T12:21:39;9.70;;;5.13;;
66298;SDS011;53098;47.658;8.578;2022-08-18T12:24:05;9.32;;;5.03;;
66298;SDS011;53098;47.658;8.578;2022-08-18T12:26:34;9.38;;;4.65;;
66298;SDS011;53098;47.658;8.578;2022-08-18T12:28:59;9.53;;;4.73;;
66298;SDS011;53098;47.658;8.578;2022-08-18T12:31:24;9.37;;;5.00;;
66298;SDS011;53098;47.658;8.578;2022-08-18T12:33:49;8.17;;;4.90;;
66298;SDS011;53098;47.658;8.578;2022-08-18T12:36:15;8.50;;;4.87;;
66298;SDS011;53098;47.658;8.578;2022-08-18T12:38:40;8.33;;;4.90;;
66298;SDS011;53098;47.658;8.578;2022-08-18T12:41:06;12.65;;;5.22;;
66298;SDS011;53098;47.658;8.578;2022-08-18T12:43:32;9.23;;;5.50;;
66298;SDS011;53098;47.658;8.578;2022-08-18T12:45:57;11.67;;;5.80;;
66298;SDS011;53098;47.658;8.578;2022-08-18T12:48:23;7.85;;;4.82;;
66298;SDS011;53098;47.658;8.578;2022-08-18T12:50:48;9.20;;;4.35;;
66298;SDS011;53098;47.658;8.578;2022-08-18T12:53:13;9.70;;;5.77;;
66298;SDS011;53098;47.658;8.578;2022-08-18T12:55:40;8.57;;;4.23;;
66298;SDS011;53098;47.658;8.578;2022-08-18T12:58:06;9.90;;;4.85;;
66298;SDS011;53098;47.658;8.578;2022-08-18T13:00:31;10.13;;;4.67;;
66298;SDS011;53098;47.658;8.578;2022-08-18T13:02:56;9.10;;;4.77;;
66298;SDS011;53098;47.658;8.578;2022-08-18T13:05:22;9.03;;;4.83;;
66298;SDS011;53098;47.658;8.578;2022-08-18T13:07:47;8.97;;;4.10;;
66298;SDS011;53098;47.658;8.578;2022-08-18T13:10:12;9.03;;;5.17;;
66298;SDS011;53098;47.658;8.578;2022-08-18T13:12:37;9.33;;;4.87;;
66298;SDS011;53098;47.658;8.578;2022-08-18T13:15:03;8.93;;;5.40;;
66298;SDS011;53098;47.658;8.578;2022-08-18T13:17:29;8.73;;;4.35;;
66298;SDS011;53098;47.658;8.578;2022-08-18T13:19:54;9.43;;;5.03;;
66298;SDS011;53098;47.658;8.578;2022-08-18T13:22:19;10.93;;;4.90;;
66298;SDS011;53098;47.658;8.578;2022-08-18T13:24:44;8.30;;;4.40;;
66298;SDS011;53098;47.658;8.578;2022-08-18T13:27:10;9.77;;;4.20;;
66298;SDS011;53098;47.658;8.578;2022-08-18T13:29:35;9.47;;;4.53;;
66298;SDS011;53098;47.658;8.578;2022-08-18T13:32:00;8.07;;;4.80;;
66298;SDS011;53098;47.658;8.578;2022-08-18T13:34:26;8.93;;;4.80;;
66298;SDS011;53098;47.658;8.578;2022-08-18T13:36:51;7.85;;;4.35;;
66298;SDS011;53098;47.658;8.578;2022-08-18T13:39:21;8.57;;;5.50;;
66298;SDS011;53098;47.658;8.578;2022-08-18T13:41:47;8.05;;;4.93;;
66298;SDS011;53098;47.658;8.578;2022-08-18T13:44:14;9.02;;;4.38;;
66298;SDS011;53098;47.658;8.578;2022-08-18T13:46:39;9.80;;;4.93;;
66298;SDS011;53098;47.658;8.578;2022-08-18T13:49:05;7.90;;;4.43;;
66298;SDS011;53098;47.658;8.578;2022-08-18T13:51:30;13.27;;;4.47;;
66298;SDS011;53098;47.658;8.578;2022-08-18T13:53:55;7.87;;;4.07;;
66298;SDS011;53098;47.658;8.578;2022-08-18T13:56:20;9.17;;;4.53;;
66298;SDS011;53098;47.658;8.578;2022-08-18T13:58:46;8.90;;;4.10;;
66298;SDS011;53098;47.658;8.578;2022-08-18T14:01:11;9.20;;;4.07;;
66298;SDS011;53098;47.658;8.578;2022-08-18T14:03:37;9.15;;;4.30;;
66298;SDS011;53098;47.658;8.578;2022-08-18T14:06:03;8.70;;;4.35;;
66298;SDS011;53098;47.658;8.578;2022-08-18T14:08:29;9.05;;;4.57;;
66298;SDS011;53098;47.658;8.578;2022-08-18T14:10:55;8.05;;;4.10;;
66298;SDS011;53098;47.658;8.578;2022-08-18T14:13:22;10.32;;;4.78;;
66298;SDS011;53098;47.658;8.578;2022-08-18T14:15:50;13.30;;;4.45;;
66298;SDS011;53098;47.658;8.578;2022-08-18T14:18:16;8.60;;;4.30;;
66298;SDS011;53098;47.658;8.578;2022-08-18T14:20:41;7.97;;;4.40;;
66298;SDS011;53098;47.658;8.578;2022-08-18T14:23:06;9.40;;;5.10;;
66298;SDS011;53098;47.658;8.578;2022-08-18T14:25:34;7.97;;;4.22;;
66298;SDS011;53098;47.658;8.578;2022-08-18T14:28:00;8.60;;;4.38;;
66298;SDS011;53098;47.658;8.578;2022-08-18T14:30:25;7.20;;;3.70;;
66298;SDS011;53098;47.658;8.578;2022-08-18T14:32:50;7.95;;;4.00;;
66298;SDS011;53098;47.658;8.578;2022-08-18T14:35:16;9.70;;;4.03;;
66298;SDS011;53098;47.658;8.578;2022-08-18T14:37:41;8.57;;;4.47;;
66298;SDS011;53098;47.658;8.578;2022-08-18T14:40:07;12.17;;;5.07;;
66298;SDS011;53098;47.658;8.578;2022-08-18T14:42:33;8.10;;;3.90;;
66298;SDS011;53098;47.658;8.578;2022-08-18T14:44:58;8.73;;;4.57;;
66298;SDS011;53098;47.658;8.578;2022-08-18T14:47:23;7.07;;;3.72;;
66298;SDS011;53098;47.658;8.578;2022-08-18T14:49:49;8.10;;;3.87;;
66298;SDS011;53098;47.658;8.578;2022-08-18T14:52:14;7.40;;;4.10;;
66298;SDS011;53098;47.658;8.578;2022-08-18T14:54:39;8.53;;;4.33;;
66298;SDS011;53098;47.658;8.578;2022-08-18T14:57:04;7.50;;;3.90;;
66298;SDS011;53098;47.658;8.578;2022-08-18T14:59:30;7.90;;;3.93;;
66298;SDS011;53098;47.658;8.578;2022-08-18T15:01:56;9.50;;;4.63;;
66298;SDS011;53098;47.658;8.578;2022-08-18T15:04:22;9.35;;;4.07;;
66298;SDS011;53098;47.658;8.578;2022-08-18T15:06:47;8.57;;;4.63;;
66298;SDS011;53098;47.658;8.578;2022-08-18T15:09:13;8.65;;;4.30;;
66298;SDS011;53098;47.658;8.578;2022-08-18T15:11:38;8.75;;;4.05;;
66298;SDS011;53098;47.658;8.578;2022-08-18T15:14:03;8.57;;;4.77;;
66298;SDS011;53098;47.658;8.578;2022-08-18T15:16:29;11.50;;;4.57;;
66298;SDS011;53098;47.658;8.578;2022-08-18T15:18:54;8.43;;;4.57;;
66298;SDS011;53098;47.658;8.578;2022-08-18T15:21:19;8.60;;;4.17;;
66298;SDS011;53098;47.658;8.578;2022-08-18T15:23:44;9.37;;;4.90;;
66298;SDS011;53098;47.658;8.578;2022-08-18T15:26:10;9.80;;;4.77;;
66298;SDS011;53098;47.658;8.578;2022-08-18T15:28:35;9.20;;;5.25;;
66298;SDS011;53098;47.658;8.578;2022-08-18T15:31:01;9.35;;;5.78;;
66298;SDS011;53098;47.658;8.578;2022-08-18T15:33:26;7.73;;;4.37;;
66298;SDS011;53098;47.658;8.578;2022-08-18T15:35:51;8.83;;;5.30;;
66298;SDS011;53098;47.658;8.578;2022-08-18T15:38:17;9.75;;;4.82;;
66298;SDS011;53098;47.658;8.578;2022-08-18T15:41:01;10.20;;;5.07;;
66298;SDS011;53098;47.658;8.578;2022-08-18T15:43:26;9.18;;;4.85;;
66298;SDS011;53098;47.658;8.578;2022-08-18T15:45:52;10.80;;;5.40;;
66298;SDS011;53098;47.658;8.578;2022-08-18T15:48:18;10.52;;;5.30;;
66298;SDS011;53098;47.658;8.578;2022-08-18T15:50:44;8.65;;;4.80;;
66298;SDS011;53098;47.658;8.578;2022-08-18T15:53:09;10.27;;;5.05;;
66298;SDS011;53098;47.658;8.578;2022-08-18T15:55:36;9.10;;;4.70;;
66298;SDS011;53098;47.658;8.578;2022-08-18T15:58:02;11.77;;;5.63;;
66298;SDS011;53098;47.658;8.578;2022-08-18T16:00:31;9.23;;;4.72;;
66298;SDS011;53098;47.658;8.578;2022-08-18T16:02:58;9.23;;;5.03;;
66298;SDS011;53098;47.658;8.578;2022-08-18T16:05:24;11.05;;;5.25;;
66298;SDS011;53098;47.658;8.578;2022-08-18T16:07:51;9.48;;;4.78;;
66298;SDS011;53098;47.658;8.578;2022-08-18T16:10:17;10.02;;;4.65;;
66298;SDS011;53098;47.658;8.578;2022-08-18T16:12:43;9.43;;;4.93;;
66298;SDS011;53098;47.658;8.578;2022-08-18T16:15:08;9.32;;;4.40;;
66298;SDS011;53098;47.658;8.578;2022-08-18T16:17:34;11.07;;;5.13;;
66298;SDS011;53098;47.658;8.578;2022-08-18T16:19:59;9.05;;;4.65;;
66298;SDS011;53098;47.658;8.578;2022-08-18T16:22:24;8.35;;;4.63;;
66298;SDS011;53098;47.658;8.578;2022-08-18T16:24:50;10.13;;;4.57;;
66298;SDS011;53098;47.658;8.578;2022-08-18T16:27:15;8.90;;;4.40;;
66298;SDS011;53098;47.658;8.578;2022-08-18T16:29:40;9.60;;;4.50;;
66298;SDS011;53098;47.658;8.578;2022-08-18T16:32:06;8.23;;;4.82;;
66298;SDS011;53098;47.658;8.578;2022-08-18T16:34:31;7.88;;;4.38;;
66298;SDS011;53098;47.658;8.578;2022-08-18T16:36:56;10.40;;;5.20;;
66298;SDS011;53098;47.658;8.578;2022-08-18T16:39:22;10.03;;;5.23;;
66298;SDS011;53098;47.658;8.578;2022-08-18T16:41:47;8.77;;;4.78;;
66298;SDS011;53098;47.658;8.578;2022-08-18T16:44:12;9.10;;;4.67;;
66298;SDS011;53098;47.658;8.578;2022-08-18T16:46:37;8.70;;;4.73;;
66298;SDS011;53098;47.658;8.578;2022-08-18T16:49:03;8.50;;;4.90;;
66298;SDS011;53098;47.658;8.578;2022-08-18T16:51:28;13.83;;;5.50;;
66298;SDS011;53098;47.658;8.578;2022-08-18T16:53:53;10.10;;;4.70;;
66298;SDS011;53098;47.658;8.578;2022-08-18T16:56:21;8.97;;;4.53;;
66298;SDS011;53098;47.658;8.578;2022-08-18T16:58:47;11.10;;;5.28;;
66298;SDS011;53098;47.658;8.578;2022-08-18T17:01:12;11.20;;;6.23;;
66298;SDS011;53098;47.658;8.578;2022-08-18T17:03:37;10.50;;;6.47;;
66298;SDS011;53098;47.658;8.578;2022-08-18T17:06:10;12.63;;;6.50;;
66298;SDS011;53098;47.658;8.578;2022-08-18T17:08:36;11.57;;;6.50;;
66298;SDS011;53098;47.658;8.578;2022-08-18T17:11:05;12.00;;;6.63;;
66298;SDS011;53098;47.658;8.578;2022-08-18T17:13:30;12.70;;;7.53;;
66298;SDS011;53098;47.658;8.578;2022-08-18T17:15:56;11.77;;;7.07;;